createdAt,value
2023-07-18T00:00:07.656Z,102054.78
2023-07-18T00:05:11.407Z,102041.69
2023-07-18T00:10:12.933Z,102045.31
2023-07-18T00:15:14.455Z,102042.31
2023-07-18T00:20:15.991Z,102051.16
2023-07-18T00:25:19.293Z,102043.47
2023-07-18T00:30:22.245Z,102042.50
2023-07-18T00:35:26.459Z,102038.34
2023-07-18T00:40:27.946Z,102041.25
2023-07-18T00:45:29.621Z,102043.91
2023-07-18T00:50:31.153Z,102045.78
2023-07-18T00:55:33.048Z,102034.84
2023-07-18T01:00:36.484Z,102033.22
2023-07-18T01:05:38.027Z,102042.00
2023-07-18T01:10:39.883Z,102038.63
2023-07-18T01:15:41.429Z,102031.88
2023-07-18T01:20:43.006Z,102033.81
2023-07-18T01:25:44.517Z,102040.03
2023-07-18T01:30:46.005Z,102035.00
2023-07-18T01:35:47.461Z,102030.72
2023-07-18T01:40:49.121Z,102032.63
2023-07-18T01:45:50.719Z,102040.72
2023-07-18T01:50:53.089Z,102041.00
2023-07-18T01:55:54.616Z,102032.66
2023-07-18T02:00:56.512Z,102029.41
2023-07-18T02:05:58.193Z,102026.97
2023-07-18T02:10:59.669Z,102023.56
2023-07-18T02:16:01.166Z,102024.75
2023-07-18T02:21:03.571Z,102018.72
2023-07-18T02:26:05.085Z,102018.72
2023-07-18T02:31:06.663Z,102013.69
2023-07-18T02:36:08.219Z,102016.31
2023-07-18T02:41:09.700Z,102010.28
2023-07-18T02:46:11.197Z,102011.25
2023-07-18T02:51:12.736Z,102020.78
2023-07-18T02:56:14.211Z,102023.50
2023-07-18T03:01:15.943Z,102028.88
2023-07-18T03:06:17.701Z,102031.47
2023-07-18T03:11:19.619Z,102040.25
2023-07-18T03:16:21.504Z,102031.59
2023-07-18T03:21:24.052Z,102039.28
2023-07-18T03:26:25.597Z,102034.97
2023-07-18T03:31:27.602Z,102035.94
2023-07-18T03:36:29.117Z,102033.41
2023-07-18T03:41:30.659Z,102039.28
2023-07-18T03:46:32.242Z,102039.16
2023-07-18T03:51:35.028Z,102038.66
2023-07-18T03:56:39.118Z,102036.53
2023-07-18T04:01:40.642Z,102033.28
2023-07-18T04:06:42.971Z,102033.38
2023-07-18T04:11:44.452Z,102034.53
2023-07-18T04:16:45.982Z,102036.59
2023-07-18T04:21:47.523Z,102033.16
2023-07-18T04:26:49.002Z,102033.25
2023-07-18T04:31:50.588Z,102021.47
2023-07-18T04:36:52.053Z,102023.53
2023-07-18T04:41:55.763Z,102029.13
2023-07-18T04:46:57.653Z,102036.44
2023-07-18T04:51:59.214Z,102036.81
2023-07-18T04:57:00.716Z,102034.72
2023-07-18T05:02:02.298Z,102038.78
2023-07-18T05:07:04.094Z,102033.31
2023-07-18T05:12:06.253Z,102039.06
2023-07-18T05:17:07.786Z,102044.94
2023-07-18T05:22:09.274Z,102043.63
2023-07-18T05:27:10.765Z,102036.94
2023-07-18T05:32:12.258Z,102033.81
2023-07-18T05:37:13.748Z,102033.16
2023-07-18T05:42:15.233Z,102025.19
2023-07-18T05:47:16.726Z,102016.84
2023-07-18T05:52:18.200Z,102025.97
2023-07-18T05:57:19.799Z,102027.22
2023-07-18T06:02:21.299Z,102026.22
2023-07-18T06:07:22.806Z,102024.72
2023-07-18T06:12:24.431Z,102028.06
2023-07-18T06:17:26.212Z,102030.88
2023-07-18T06:22:27.719Z,102031.53
2023-07-18T06:27:29.201Z,102030.63
2023-07-18T06:32:30.830Z,102038.56
2023-07-18T06:37:32.328Z,102033.44
2023-07-18T06:42:33.848Z,102044.69
2023-07-18T06:47:36.660Z,102041.47
2023-07-18T06:52:38.184Z,102047.06
2023-07-18T06:57:41.800Z,102035.97
2023-07-18T07:02:45.074Z,102045.16
2023-07-18T07:07:46.678Z,102050.00
2023-07-18T07:12:48.150Z,102048.84
2023-07-18T07:17:49.651Z,102057.25
2023-07-18T07:22:52.094Z,102056.09
2023-07-18T07:27:53.958Z,102050.56
2023-07-18T07:32:55.523Z,102045.84
2023-07-18T07:37:57.054Z,102048.03
2023-07-18T07:42:58.541Z,102043.59
2023-07-18T07:48:00.155Z,102049.47
2023-07-18T07:53:02.376Z,102040.59
2023-07-18T07:58:03.893Z,102042.13
2023-07-18T08:03:05.474Z,102040.66
2023-07-18T08:08:25.781Z,102034.03
2023-07-18T08:13:27.257Z,102034.03
2023-07-18T08:18:28.732Z,102040.38
2023-07-18T08:23:30.201Z,102028.34
2023-07-18T08:28:31.718Z,102019.59
2023-07-18T08:33:33.193Z,102026.47
2023-07-18T08:38:34.639Z,102024.81
2023-07-18T08:43:38.021Z,102020.72
2023-07-18T08:48:40.092Z,102019.22
2023-07-18T08:53:42.508Z,102014.00
2023-07-18T08:58:43.971Z,102004.19
2023-07-18T09:03:45.438Z,101993.78
2023-07-18T09:08:48.294Z,101995.91
2023-07-18T09:13:49.817Z,102002.38
2023-07-18T09:18:53.356Z,101990.66
2023-07-18T09:23:54.835Z,101992.09
2023-07-18T09:28:56.293Z,101992.00
2023-07-18T09:33:57.753Z,101991.88
2023-07-18T09:38:59.300Z,101988.22
2023-07-18T09:44:27.212Z,101984.75
2023-07-18T09:49:32.641Z,101987.44
2023-07-18T09:54:35.366Z,101985.09
2023-07-18T09:59:38.898Z,101985.41
2023-07-18T10:04:40.382Z,101981.16
2023-07-18T10:09:42.143Z,101981.81
2023-07-18T10:14:43.710Z,101976.84
2023-07-18T10:19:48.624Z,101978.72
2023-07-18T10:24:50.052Z,101965.13
2023-07-18T10:30:08.422Z,101962.22
2023-07-18T10:35:12.579Z,101955.16
2023-07-18T10:40:32.866Z,101947.13
2023-07-18T10:45:39.666Z,101953.25
2023-07-18T10:50:42.700Z,101948.53
2023-07-18T10:55:44.219Z,101944.91
2023-07-18T11:00:47.072Z,101930.72
2023-07-18T11:05:49.956Z,101922.63
2023-07-18T11:11:02.103Z,101917.97
2023-07-18T11:16:12.299Z,101914.56
2023-07-18T11:21:17.301Z,101912.34
2023-07-18T11:26:19.724Z,101908.78
2023-07-18T11:36:36.949Z,101898.25
2023-07-18T11:41:40.326Z,101905.13
2023-07-18T11:46:45.371Z,101898.41
2023-07-18T11:51:46.857Z,101888.72
2023-07-18T11:56:48.325Z,101888.50
2023-07-18T12:01:49.836Z,101889.22
2023-07-18T12:06:51.468Z,101881.22
2023-07-18T12:11:52.965Z,101890.63
2023-07-18T12:16:54.490Z,101881.44
2023-07-18T12:21:56.053Z,101885.44
2023-07-18T12:26:57.509Z,101883.91
2023-07-18T12:31:59.150Z,101886.78
2023-07-18T12:37:00.745Z,101876.00
2023-07-18T12:42:02.453Z,101872.69
2023-07-18T12:47:04.133Z,101868.91
2023-07-18T12:52:07.231Z,101872.59
2023-07-18T12:57:08.823Z,101871.09
2023-07-18T13:02:10.498Z,101863.91
2023-07-18T13:07:12.224Z,101849.94
2023-07-18T13:12:13.721Z,101840.97
2023-07-18T13:17:15.322Z,101847.69
2023-07-18T13:22:16.825Z,101835.06
2023-07-18T13:27:18.383Z,101822.88
2023-07-18T13:32:19.887Z,101813.69
2023-07-18T13:37:21.382Z,101809.41
2023-07-18T13:42:22.832Z,101806.13
2023-07-18T13:47:24.359Z,101804.28
2023-07-18T13:52:25.918Z,101794.47
2023-07-18T13:57:28.051Z,101794.41
2023-07-18T14:02:30.595Z,101788.94
2023-07-18T14:07:32.645Z,101791.84
2023-07-18T14:12:34.362Z,101784.75
2023-07-18T14:17:36.173Z,101786.28
2023-07-18T14:22:37.683Z,101796.28
2023-07-18T14:27:39.194Z,101809.84
2023-07-18T14:32:40.714Z,101830.31
2023-07-18T14:37:42.275Z,101843.34
2023-07-18T14:42:43.754Z,101855.47
2023-07-18T14:47:45.248Z,101871.25
2023-07-18T14:52:46.747Z,101859.03
2023-07-18T14:57:48.247Z,101857.94
2023-07-18T15:02:49.915Z,101853.47
2023-07-18T15:07:51.457Z,101841.47
2023-07-18T15:12:52.944Z,101823.81
2023-07-18T15:17:54.650Z,101812.38
2023-07-18T15:22:56.399Z,101807.66
2023-07-18T15:27:58.144Z,101798.41
2023-07-18T15:33:09.158Z,101784.31
2023-07-18T15:38:21.160Z,101782.22
2023-07-18T15:43:23.194Z,101782.09
2023-07-18T15:48:24.728Z,101782.69
2023-07-18T15:53:26.258Z,101769.88
2023-07-18T15:58:27.732Z,101760.72
2023-07-18T16:03:29.329Z,101760.44
2023-07-18T16:08:31.233Z,101746.47
2023-07-18T16:13:32.766Z,101748.97
2023-07-18T16:18:34.226Z,101740.53
2023-07-18T16:23:35.726Z,101730.25
2023-07-18T16:28:37.190Z,101733.59
2023-07-18T16:33:38.739Z,101719.97
2023-07-18T16:38:40.259Z,101713.44
2023-07-18T16:43:41.743Z,101708.09
2023-07-18T16:48:43.228Z,101711.91
2023-07-18T16:53:44.703Z,101713.94
2023-07-18T16:58:46.231Z,101706.91
2023-07-18T17:03:47.874Z,101706.41
2023-07-18T17:08:49.386Z,101703.09
2023-07-18T17:13:52.641Z,101695.59
2023-07-18T17:18:54.370Z,101688.78
2023-07-18T17:23:55.960Z,101684.59
2023-07-18T17:28:57.406Z,101684.75
2023-07-18T17:33:58.996Z,101691.88
2023-07-18T17:39:00.510Z,101687.81
2023-07-18T17:44:01.978Z,101683.00
2023-07-18T17:49:03.812Z,101680.75
2023-07-18T17:54:05.356Z,101675.50
2023-07-18T17:59:06.955Z,101663.25
2023-07-18T18:04:08.477Z,101668.84
2023-07-18T18:09:10.053Z,101659.09
2023-07-18T18:14:11.589Z,101656.59
2023-07-18T18:19:13.120Z,101658.00
2023-07-18T18:24:14.674Z,101654.00
2023-07-18T18:29:16.223Z,101646.81
2023-07-18T18:34:17.812Z,101636.00
2023-07-18T18:39:19.446Z,101634.09
2023-07-18T18:44:21.002Z,101638.03
2023-07-18T18:49:27.046Z,101636.34
2023-07-18T18:54:29.194Z,101634.09
2023-07-18T18:59:30.726Z,101643.09
2023-07-18T19:04:32.305Z,101638.22
2023-07-18T19:09:33.933Z,101640.72
2023-07-18T19:14:41.883Z,101637.25
2023-07-18T19:19:43.783Z,101639.22
2023-07-18T19:24:45.333Z,101628.72
2023-07-18T19:29:46.866Z,101629.59
2023-07-18T19:34:48.402Z,101636.44
2023-07-18T19:39:50.206Z,101633.38
2023-07-18T19:44:51.792Z,101633.09
2023-07-18T19:49:53.310Z,101626.53
2023-07-18T19:54:54.845Z,101634.94
2023-07-18T19:59:56.381Z,101623.34
2023-07-18T20:04:57.934Z,101613.16
2023-07-18T20:09:59.449Z,101624.78
2023-07-18T20:15:01.031Z,101621.53
2023-07-18T20:20:02.710Z,101621.09
2023-07-18T20:25:04.705Z,101615.88
2023-07-18T20:30:06.869Z,101615.72
2023-07-18T20:35:08.691Z,101610.16
2023-07-18T20:40:11.075Z,101612.34
2023-07-18T20:45:12.682Z,101615.06
2023-07-18T20:50:14.205Z,101614.88
2023-07-18T20:55:15.917Z,101613.72
2023-07-18T21:00:17.594Z,101598.06
2023-07-18T21:05:19.126Z,101598.47
2023-07-18T21:10:20.806Z,101591.38
2023-07-18T21:15:22.398Z,101597.75
2023-07-18T21:20:23.951Z,101600.34
2023-07-18T21:25:25.487Z,101607.56
2023-07-18T21:30:27.113Z,101600.47
2023-07-18T21:35:28.738Z,101599.00
2023-07-18T21:40:30.275Z,101600.47
2023-07-18T21:45:32.089Z,101599.94
2023-07-18T21:50:33.840Z,101597.22
2023-07-18T21:55:38.476Z,101597.44
2023-07-18T22:00:39.986Z,101606.44
2023-07-18T22:05:41.536Z,101606.81
2023-07-18T22:10:43.229Z,101598.88
2023-07-18T22:15:44.842Z,101596.19
2023-07-18T22:20:46.341Z,101587.31
2023-07-18T22:25:59.667Z,101599.22
2023-07-18T22:31:11.746Z,101589.00
2023-07-18T22:36:13.346Z,101574.16
2023-07-18T22:41:14.888Z,101584.06
2023-07-18T22:46:16.417Z,101573.03
2023-07-18T22:51:18.213Z,101573.22
2023-07-18T22:56:19.983Z,101568.94
2023-07-18T23:01:22.099Z,101557.75
2023-07-18T23:06:23.883Z,101559.56
2023-07-18T23:11:25.382Z,101555.25
2023-07-18T23:16:26.990Z,101550.66
2023-07-18T23:21:28.488Z,101544.84
2023-07-18T23:26:29.985Z,101529.59
2023-07-18T23:31:31.420Z,101526.97
2023-07-18T23:36:32.900Z,101528.03
2023-07-18T23:41:34.427Z,101522.50
2023-07-18T23:46:35.951Z,101521.69
2023-07-18T23:51:37.417Z,101519.16
2023-07-18T23:56:38.884Z,101510.72
